createdAt,value
2018-12-24T00:00:44.116Z,99.44
2018-12-24T00:03:12.676Z,99.58
2018-12-24T00:05:41.296Z,99.47
2018-12-24T00:08:09.802Z,99.38
2018-12-24T00:10:38.502Z,99.46
2018-12-24T00:13:07.081Z,99.33
2018-12-24T00:15:35.704Z,99.09
2018-12-24T00:18:04.379Z,98.89
2018-12-24T00:20:33.030Z,98.90
2018-12-24T00:23:01.694Z,98.79
2018-12-24T00:25:30.345Z,96.66
2018-12-24T00:27:58.925Z,97.41
2018-12-24T00:30:27.507Z,97.25
2018-12-24T00:32:56.058Z,97.69
2018-12-24T00:35:24.610Z,97.75
2018-12-24T00:37:53.283Z,97.69
2018-12-24T00:40:21.959Z,97.79
2018-12-24T00:42:50.661Z,97.69
2018-12-24T00:45:19.456Z,97.40
2018-12-24T00:47:48.142Z,97.79
2018-12-24T00:50:16.654Z,98.05
2018-12-24T00:52:45.290Z,97.49
2018-12-24T00:55:13.906Z,95.73
2018-12-24T00:57:42.434Z,95.95
2018-12-24T01:00:11.021Z,96.04
2018-12-24T01:02:39.707Z,97.06
2018-12-24T01:05:08.477Z,96.07
2018-12-24T01:07:37.244Z,95.49
2018-12-24T01:10:45.808Z,95.06
2018-12-24T01:13:14.413Z,94.70
2018-12-24T01:15:43.066Z,94.17
2018-12-24T01:18:11.730Z,93.83
2018-12-24T01:20:40.392Z,92.87
2018-12-24T01:23:09.109Z,91.86
2018-12-24T01:25:37.681Z,93.03
2018-12-24T01:28:06.195Z,91.74
2018-12-24T01:30:34.781Z,92.46
2018-12-24T01:33:03.344Z,90.09
2018-12-24T01:35:32.054Z,90.75
2018-12-24T01:38:00.671Z,91.94
2018-12-24T01:40:29.278Z,92.50
2018-12-24T01:42:57.902Z,90.93
2018-12-24T01:45:26.653Z,91.35
2018-12-24T01:47:55.243Z,92.37
2018-12-24T01:50:23.816Z,91.15
2018-12-24T01:52:52.564Z,90.89
2018-12-24T01:55:21.280Z,91.19
2018-12-24T01:57:49.879Z,91.11
2018-12-24T02:00:18.829Z,91.18
2018-12-24T02:02:47.474Z,91.10
2018-12-24T02:05:16.031Z,90.84
2018-12-24T02:07:44.899Z,90.13
2018-12-24T02:10:13.450Z,89.46
2018-12-24T02:12:42.638Z,89.70
2018-12-24T02:15:12.659Z,90.32
2018-12-24T02:17:41.233Z,89.55
2018-12-24T02:20:09.866Z,90.79
2018-12-24T02:22:38.756Z,90.78
2018-12-24T02:25:07.607Z,90.78
2018-12-24T02:27:36.317Z,91.37
2018-12-24T02:30:05.040Z,91.18
2018-12-24T02:32:53.096Z,90.19
2018-12-24T02:35:21.747Z,89.37
2018-12-24T02:37:50.361Z,89.28
2018-12-24T02:40:18.954Z,88.87
2018-12-24T02:42:52.342Z,89.23
2018-12-24T02:45:17.942Z,89.25
2018-12-24T02:47:46.535Z,88.47
2018-12-24T02:50:15.187Z,89.23
2018-12-24T02:52:56.027Z,89.47
2018-12-24T02:55:15.237Z,89.44
2018-12-24T02:57:43.822Z,88.58
2018-12-24T03:00:12.458Z,89.39
2018-12-24T03:02:41.505Z,88.99
2018-12-24T03:05:10.156Z,88.08
2018-12-24T03:07:39.086Z,88.91
2018-12-24T03:10:08.081Z,87.35
2018-12-24T03:12:36.689Z,87.60
2018-12-24T03:15:45.232Z,86.78
2018-12-24T03:18:13.894Z,87.16
2018-12-24T03:20:42.975Z,87.72
2018-12-24T03:23:11.641Z,87.65
2018-12-24T03:25:40.290Z,85.40
2018-12-24T03:28:08.958Z,86.35
2018-12-24T03:30:37.535Z,86.64
2018-12-24T03:33:06.190Z,86.63
2018-12-24T03:35:34.754Z,86.69
2018-12-24T03:38:03.311Z,86.84
2018-12-24T03:40:31.918Z,86.63
2018-12-24T03:43:00.556Z,87.62
2018-12-24T03:45:29.242Z,88.09
2018-12-24T03:47:57.874Z,88.11
2018-12-24T03:50:26.812Z,87.89
2018-12-24T03:52:55.394Z,86.94
2018-12-24T03:55:23.994Z,87.47
2018-12-24T03:57:52.661Z,87.42
2018-12-24T04:00:21.589Z,87.07
2018-12-24T04:02:50.148Z,86.17
2018-12-24T04:05:18.685Z,86.71
2018-12-24T04:07:47.335Z,85.75
2018-12-24T04:10:16.003Z,86.83
2018-12-24T04:12:44.620Z,86.38
2018-12-24T04:15:13.584Z,86.74
2018-12-24T04:17:42.182Z,87.20
2018-12-24T04:20:11.263Z,86.98
2018-12-24T04:22:39.914Z,86.23
2018-12-24T04:25:08.586Z,87.14
2018-12-24T04:27:41.634Z,88.11
2018-12-24T04:30:07.962Z,88.87
2018-12-24T04:32:36.515Z,89.31
2018-12-24T04:35:05.275Z,89.57
2018-12-24T04:37:33.775Z,90.06
2018-12-24T04:40:02.415Z,89.30
2018-12-24T04:42:30.977Z,89.49
2018-12-24T04:44:59.566Z,89.54
2018-12-24T04:47:28.298Z,89.38
2018-12-24T04:49:56.886Z,88.42
2018-12-24T04:52:25.555Z,89.66
2018-12-24T04:54:54.053Z,88.23
2018-12-24T04:57:22.647Z,87.54
2018-12-24T04:59:51.341Z,88.45
2018-12-24T05:02:19.938Z,87.70
2018-12-24T05:04:48.578Z,87.56
2018-12-24T05:07:17.196Z,88.15
2018-12-24T05:09:45.788Z,86.66
2018-12-24T05:12:14.431Z,86.85
2018-12-24T05:14:43.125Z,87.32
2018-12-24T05:17:11.750Z,86.79
2018-12-24T05:19:40.262Z,87.05
2018-12-24T05:22:08.794Z,87.58
2018-12-24T05:24:37.587Z,86.76
2018-12-24T05:27:06.129Z,87.12
2018-12-24T05:29:34.792Z,87.56
2018-12-24T05:32:03.360Z,86.38
2018-12-24T05:34:32.004Z,85.88
2018-12-24T05:37:00.718Z,86.02
2018-12-24T05:39:29.321Z,86.31
2018-12-24T05:41:57.992Z,86.73
2018-12-24T05:44:26.556Z,85.93
2018-12-24T05:46:55.128Z,85.22
2018-12-24T05:49:23.704Z,85.56
2018-12-24T05:51:52.268Z,86.18
2018-12-24T05:54:20.979Z,86.35
2018-12-24T05:56:49.960Z,85.28
2018-12-24T05:59:18.579Z,86.24
2018-12-24T06:01:47.135Z,86.44
2018-12-24T06:04:16.325Z,86.40
2018-12-24T06:06:44.871Z,86.24
2018-12-24T06:09:13.533Z,86.83
2018-12-24T06:11:42.155Z,85.28
2018-12-24T06:14:10.651Z,83.46
2018-12-24T06:16:39.375Z,84.59
2018-12-24T06:19:07.908Z,84.49
2018-12-24T06:21:36.650Z,82.16
2018-12-24T06:24:05.506Z,81.65
2018-12-24T06:26:34.179Z,82.03
2018-12-24T06:29:02.818Z,81.72
2018-12-24T06:31:31.369Z,82.19
2018-12-24T06:33:59.981Z,80.92
2018-12-24T06:36:28.476Z,80.76
2018-12-24T06:38:57.110Z,80.13
2018-12-24T06:41:25.822Z,78.01
2018-12-24T06:43:54.476Z,77.20
2018-12-24T06:46:23.123Z,76.16
2018-12-24T06:48:51.689Z,75.23
2018-12-24T06:51:20.250Z,74.72
2018-12-24T06:53:48.814Z,75.06
2018-12-24T06:56:17.546Z,75.64
2018-12-24T06:58:46.159Z,75.35
2018-12-24T07:01:14.764Z,75.23
2018-12-24T07:03:43.323Z,75.00
2018-12-24T07:06:11.965Z,75.89
2018-12-24T07:08:40.457Z,76.33
2018-12-24T07:11:09.092Z,76.50
2018-12-24T07:13:37.775Z,77.55
2018-12-24T07:16:06.362Z,77.41
2018-12-24T07:18:34.960Z,77.62
2018-12-24T07:21:03.597Z,78.40
2018-12-24T07:23:32.218Z,78.25
2018-12-24T07:26:00.867Z,78.33
2018-12-24T07:28:29.586Z,78.58
2018-12-24T07:30:58.132Z,77.65
2018-12-24T07:33:26.805Z,77.49
2018-12-24T07:35:55.435Z,78.12
2018-12-24T07:38:24.090Z,79.82
2018-12-24T07:40:52.800Z,79.55
2018-12-24T07:43:21.485Z,79.16
2018-12-24T07:45:50.762Z,80.25
2018-12-24T07:48:19.398Z,79.59
2018-12-24T07:50:48.073Z,79.97
2018-12-24T07:53:16.662Z,81.60
2018-12-24T07:55:45.251Z,80.94
2018-12-24T07:58:14.211Z,80.81
2018-12-24T08:00:43.734Z,82.02
2018-12-24T08:03:12.355Z,82.95
2018-12-24T08:05:41.075Z,82.59
2018-12-24T08:08:09.974Z,80.94
2018-12-24T08:10:38.555Z,81.34
2018-12-24T08:13:07.195Z,81.24
2018-12-24T08:15:35.954Z,82.08
2018-12-24T08:18:04.665Z,81.37
2018-12-24T08:20:33.352Z,80.42
2018-12-24T08:23:01.842Z,78.18
2018-12-24T08:25:30.355Z,79.39
2018-12-24T08:27:58.897Z,78.76
2018-12-24T08:30:27.523Z,80.23
2018-12-24T08:32:56.209Z,79.90
2018-12-24T08:35:24.838Z,80.34
2018-12-24T08:37:53.638Z,79.64
2018-12-24T08:40:22.272Z,80.60
2018-12-24T08:42:51.140Z,79.26
2018-12-24T08:45:19.704Z,78.61
2018-12-24T08:47:48.656Z,78.88
2018-12-24T08:50:17.153Z,78.86
2018-12-24T08:52:45.838Z,79.25
2018-12-24T08:55:14.421Z,77.65
2018-12-24T08:57:42.965Z,77.03
2018-12-24T09:00:11.765Z,75.39
2018-12-24T09:02:40.410Z,75.48
2018-12-24T09:05:09.075Z,75.57
2018-12-24T09:07:37.950Z,75.75
2018-12-24T09:10:06.641Z,75.62
2018-12-24T09:12:35.290Z,75.63
2018-12-24T09:17:59.100Z,75.32
2018-12-24T09:20:28.111Z,73.08
2018-12-24T09:22:57.008Z,74.81
2018-12-24T09:25:25.620Z,74.47
2018-12-24T09:27:54.294Z,75.11
2018-12-24T09:30:22.949Z,73.87
2018-12-24T09:32:51.677Z,74.64
2018-12-24T09:35:20.304Z,74.66
2018-12-24T09:37:48.931Z,73.72
2018-12-24T09:40:17.541Z,74.29
2018-12-24T09:42:46.227Z,74.82
2018-12-24T09:45:34.239Z,75.35
2018-12-24T09:48:03.434Z,75.63
2018-12-24T09:50:31.993Z,74.78
2018-12-24T09:53:00.503Z,75.31
2018-12-24T09:55:29.235Z,75.53
2018-12-24T09:57:57.774Z,74.66
2018-12-24T10:00:26.557Z,75.05
2018-12-24T10:03:35.157Z,74.39
2018-12-24T10:06:43.709Z,74.12
2018-12-24T10:09:12.212Z,74.70
2018-12-24T10:11:40.998Z,74.35
2018-12-24T10:14:09.728Z,75.04
2018-12-24T10:16:38.488Z,75.33
2018-12-24T10:19:07.551Z,75.92
2018-12-24T10:21:36.165Z,76.43
2018-12-24T10:24:04.706Z,76.35
2018-12-24T10:26:33.468Z,76.44
2018-12-24T10:29:02.224Z,76.51
2018-12-24T10:31:30.845Z,76.42
2018-12-24T10:33:59.514Z,75.84
2018-12-24T10:36:28.425Z,76.46
2018-12-24T10:38:57.039Z,74.87
2018-12-24T10:44:16.470Z,75.97
2018-12-24T10:46:45.081Z,76.42
2018-12-24T10:49:13.669Z,76.33
2018-12-24T10:51:42.502Z,76.24
2018-12-24T10:54:11.186Z,75.79
2018-12-24T10:56:40.030Z,75.63
2018-12-24T10:59:10.124Z,74.39
2018-12-24T11:01:38.898Z,73.60
2018-12-24T11:04:26.781Z,73.58
2018-12-24T11:06:55.934Z,74.31
2018-12-24T11:09:24.532Z,74.63
2018-12-24T11:11:53.091Z,74.56
2018-12-24T11:14:21.750Z,74.27
2018-12-24T11:16:51.083Z,74.67
2018-12-24T11:19:27.691Z,73.77
2018-12-24T11:24:31.466Z,72.05
2018-12-24T11:27:00.240Z,72.71
2018-12-24T11:29:29.397Z,72.77
2018-12-24T11:31:58.409Z,72.50
2018-12-24T11:34:27.007Z,73.29
2018-12-24T11:36:55.670Z,72.58
2018-12-24T11:39:24.266Z,70.72
2018-12-24T11:41:52.887Z,71.78
2018-12-24T11:44:21.466Z,71.81
2018-12-24T11:46:50.230Z,71.81
2018-12-24T11:49:18.952Z,72.39
2018-12-24T11:51:47.686Z,72.67
2018-12-24T11:54:16.283Z,71.25
2018-12-24T11:56:44.911Z,71.97
2018-12-24T11:59:13.472Z,72.01
2018-12-24T12:01:42.279Z,72.00
2018-12-24T12:04:10.771Z,72.00
2018-12-24T12:06:39.527Z,70.45
2018-12-24T12:09:08.199Z,71.11
2018-12-24T12:11:37.248Z,70.88
2018-12-24T12:14:06.347Z,71.27
2018-12-24T12:16:34.932Z,71.48
2018-12-24T12:19:03.638Z,71.22
2018-12-24T12:21:32.234Z,70.29
2018-12-24T12:24:00.908Z,71.26
2018-12-24T12:26:30.397Z,70.49
2018-12-24T12:28:59.873Z,71.27
2018-12-24T12:31:28.519Z,71.20
2018-12-24T12:33:57.481Z,71.57
2018-12-24T12:36:26.109Z,70.31
2018-12-24T12:38:54.772Z,70.29
2018-12-24T12:41:23.755Z,70.47
2018-12-24T12:43:52.440Z,70.39
2018-12-24T12:46:21.043Z,69.56
2018-12-24T12:48:49.921Z,69.92
2018-12-24T12:51:18.803Z,70.21
2018-12-24T12:53:47.459Z,70.60
2018-12-24T12:56:16.091Z,69.39
2018-12-24T12:58:44.661Z,69.34
2018-12-24T13:01:13.181Z,69.91
2018-12-24T13:03:41.926Z,71.07
2018-12-24T13:06:10.482Z,71.04
2018-12-24T13:08:39.010Z,71.33
2018-12-24T13:11:07.607Z,69.68
2018-12-24T13:13:36.831Z,69.73
2018-12-24T13:16:06.729Z,70.67
2018-12-24T13:18:35.347Z,70.83
2018-12-24T13:21:04.094Z,71.27
2018-12-24T13:23:32.756Z,71.29
2018-12-24T13:26:01.399Z,70.72
2018-12-24T13:28:29.886Z,71.60
2018-12-24T13:30:58.567Z,71.52
2018-12-24T13:33:27.148Z,71.64
2018-12-24T13:35:55.734Z,71.90
2018-12-24T13:38:24.781Z,72.49
2018-12-24T13:40:53.462Z,72.44
2018-12-24T13:43:22.086Z,72.40
2018-12-24T13:45:50.818Z,72.90
2018-12-24T13:48:19.439Z,72.72
2018-12-24T13:50:48.060Z,72.95
2018-12-24T13:53:16.646Z,73.44
2018-12-24T13:55:45.270Z,73.17
2018-12-24T13:58:14.281Z,72.76
2018-12-24T14:00:42.957Z,72.70
2018-12-24T14:03:11.962Z,73.05
2018-12-24T14:05:40.694Z,72.71
2018-12-24T14:08:09.414Z,72.56
2018-12-24T14:10:38.148Z,72.72
2018-12-24T14:13:06.883Z,73.04
2018-12-24T14:15:35.489Z,72.79
2018-12-24T14:18:04.604Z,73.06
2018-12-24T14:20:35.229Z,72.91
2018-12-24T14:23:03.576Z,73.58
2018-12-24T14:25:32.302Z,73.95
2018-12-24T14:28:00.879Z,73.20
2018-12-24T14:30:29.657Z,73.37
2018-12-24T14:33:17.614Z,72.99
2018-12-24T14:35:46.297Z,72.51
2018-12-24T14:38:14.956Z,72.96
2018-12-24T14:40:43.517Z,73.72
2018-12-24T14:43:12.108Z,73.68
2018-12-24T14:45:40.744Z,74.17
2018-12-24T14:48:09.739Z,74.30
2018-12-24T14:50:46.925Z,74.32
2018-12-24T14:53:08.669Z,74.19
2018-12-24T14:55:37.277Z,74.59
2018-12-24T14:58:05.847Z,74.88
2018-12-24T15:00:34.706Z,74.92
2018-12-24T15:03:03.455Z,75.34
2018-12-24T15:05:32.287Z,75.97
2018-12-24T15:08:00.936Z,75.50
2018-12-24T15:10:29.609Z,75.89
2018-12-24T15:12:58.661Z,76.10
2018-12-24T15:15:27.238Z,75.96
2018-12-24T15:17:55.935Z,76.18
2018-12-24T15:20:24.695Z,75.68
2018-12-24T15:22:53.316Z,75.81
2018-12-24T15:25:22.191Z,76.04
2018-12-24T15:27:50.707Z,76.43
2018-12-24T15:30:19.285Z,76.53
2018-12-24T15:33:07.257Z,76.77
2018-12-24T15:35:35.849Z,76.59
2018-12-24T15:38:04.520Z,76.94
2018-12-24T15:40:33.578Z,77.05
2018-12-24T15:43:02.333Z,76.92
2018-12-24T15:45:30.917Z,77.36
2018-12-24T15:47:59.603Z,77.42
2018-12-24T15:50:28.633Z,77.69
2018-12-24T15:52:57.331Z,77.86
2018-12-24T15:55:26.209Z,78.23
2018-12-24T15:57:54.871Z,78.26
2018-12-24T16:00:23.466Z,78.02
2018-12-24T16:02:52.164Z,78.57
2018-12-24T16:05:20.812Z,78.78
2018-12-24T16:07:49.479Z,78.98
2018-12-24T16:10:18.083Z,79.21
2018-12-24T16:12:46.598Z,79.17
2018-12-24T16:15:15.200Z,79.41
2018-12-24T16:17:43.773Z,79.61
2018-12-24T16:20:12.345Z,80.38
2018-12-24T16:22:41.012Z,81.03
2018-12-24T16:25:09.592Z,81.32
2018-12-24T16:27:38.293Z,81.77
2018-12-24T16:30:46.906Z,81.77
2018-12-24T16:33:15.547Z,81.72
2018-12-24T16:35:44.524Z,82.00
2018-12-24T16:38:13.288Z,82.46
2018-12-24T16:40:41.952Z,82.65
2018-12-24T16:43:10.635Z,82.89
2018-12-24T16:45:39.252Z,82.79
2018-12-24T16:48:08.169Z,82.84
2018-12-24T16:50:37.157Z,83.17
2018-12-24T16:53:05.821Z,83.12
2018-12-24T16:55:34.415Z,83.22
2018-12-24T16:58:03.166Z,83.19
2018-12-24T17:00:31.789Z,83.25
2018-12-24T17:03:00.439Z,83.37
2018-12-24T17:05:29.096Z,83.17
2018-12-24T17:07:57.707Z,83.08
2018-12-24T17:10:26.449Z,83.32
2018-12-24T17:12:54.985Z,83.39
2018-12-24T17:15:23.604Z,83.12
2018-12-24T17:17:52.229Z,82.97
2018-12-24T17:20:20.875Z,82.83
2018-12-24T17:22:52.240Z,83.01
2018-12-24T17:25:20.944Z,83.16
2018-12-24T17:27:49.641Z,83.02
2018-12-24T17:30:18.277Z,82.72
2018-12-24T17:32:46.998Z,82.61
2018-12-24T17:35:15.699Z,82.96
2018-12-24T17:37:44.472Z,83.11
2018-12-24T17:40:13.176Z,82.84
2018-12-24T17:42:41.866Z,83.02
2018-12-24T17:45:10.641Z,82.73
2018-12-24T17:47:39.315Z,82.95
2018-12-24T17:50:48.907Z,83.34
2018-12-24T17:53:17.756Z,83.69
2018-12-24T17:55:46.749Z,84.57
2018-12-24T17:58:15.322Z,85.46
2018-12-24T18:03:19.305Z,86.63
2018-12-24T18:06:07.354Z,86.29
2018-12-24T18:08:36.028Z,86.02
2018-12-24T18:11:04.608Z,86.51
2018-12-24T18:13:33.238Z,87.09
2018-12-24T18:16:02.359Z,87.10
2018-12-24T18:18:31.029Z,86.95
2018-12-24T18:21:00.068Z,86.63
2018-12-24T18:23:28.718Z,86.79
2018-12-24T18:25:57.618Z,86.55
2018-12-24T18:28:26.425Z,86.56
2018-12-24T18:30:55.083Z,86.34
2018-12-24T18:33:23.744Z,85.93
2018-12-24T18:35:52.403Z,85.79
2018-12-24T18:38:40.402Z,85.48
2018-12-24T18:41:09.176Z,85.87
2018-12-24T18:43:37.891Z,86.08
2018-12-24T18:46:06.495Z,86.37
2018-12-24T18:51:11.013Z,86.57
2018-12-24T18:53:39.640Z,86.20
2018-12-24T18:56:08.313Z,86.07
2018-12-24T18:58:37.116Z,86.37
2018-12-24T19:01:05.826Z,86.44
2018-12-24T19:03:34.510Z,86.55
2018-12-24T19:06:03.173Z,87.34
2018-12-24T19:08:31.745Z,87.36
2018-12-24T19:11:00.363Z,87.31
2018-12-24T19:13:29.019Z,87.67
2018-12-24T19:15:57.559Z,87.97
2018-12-24T19:18:26.198Z,87.95
2018-12-24T19:20:54.807Z,88.07
2018-12-24T19:23:23.439Z,88.04
2018-12-24T19:25:52.128Z,87.90
2018-12-24T19:28:20.777Z,88.12
2018-12-24T19:30:49.420Z,88.54
2018-12-24T19:33:17.992Z,88.54
2018-12-24T19:35:46.636Z,88.72
2018-12-24T19:38:15.366Z,88.57
2018-12-24T19:40:44.044Z,88.54
2018-12-24T19:43:12.662Z,88.51
2018-12-24T19:45:41.356Z,88.59
2018-12-24T19:48:09.937Z,88.49
2018-12-24T19:50:38.653Z,88.44
2018-12-24T19:53:07.986Z,88.67
2018-12-24T19:55:36.636Z,88.46
2018-12-24T19:58:05.667Z,88.13
2018-12-24T20:00:34.397Z,88.36
2018-12-24T20:03:03.269Z,88.46
2018-12-24T20:05:31.970Z,88.33
2018-12-24T20:08:00.686Z,88.73
2018-12-24T20:10:29.618Z,88.64
2018-12-24T20:12:58.307Z,88.71
2018-12-24T20:15:26.921Z,88.38
2018-12-24T20:17:58.401Z,88.70
2018-12-24T20:20:26.203Z,88.94
2018-12-24T20:22:54.753Z,89.01
2018-12-24T20:25:23.494Z,89.06
2018-12-24T20:27:52.180Z,89.04
2018-12-24T20:30:20.812Z,88.77
2018-12-24T20:32:49.488Z,89.05
2018-12-24T20:35:18.059Z,89.18
2018-12-24T20:37:46.613Z,89.32
2018-12-24T20:40:15.305Z,89.30
2018-12-24T20:42:43.813Z,89.19
2018-12-24T20:45:12.496Z,88.89
2018-12-24T20:47:41.157Z,88.42
2018-12-24T20:50:09.856Z,88.45
2018-12-24T20:52:38.539Z,88.62
2018-12-24T20:55:07.212Z,88.53
2018-12-24T20:57:35.692Z,88.49
2018-12-24T21:00:44.290Z,88.46
2018-12-24T21:03:12.997Z,88.25
2018-12-24T21:05:41.705Z,88.41
2018-12-24T21:08:10.393Z,88.32
2018-12-24T21:10:39.371Z,88.36
2018-12-24T21:13:08.028Z,88.42
2018-12-24T21:15:36.689Z,88.49
2018-12-24T21:18:05.410Z,89.26
2018-12-24T21:20:34.082Z,89.67
2018-12-24T21:23:02.761Z,89.47
2018-12-24T21:25:31.445Z,89.65
2018-12-24T21:28:00.137Z,89.55
2018-12-24T21:30:28.779Z,89.24
2018-12-24T21:32:57.467Z,89.53
2018-12-24T21:35:26.113Z,89.52
2018-12-24T21:37:55.144Z,89.35
2018-12-24T21:40:23.834Z,89.64
2018-12-24T21:42:54.758Z,89.79
2018-12-24T21:45:22.888Z,89.56
2018-12-24T21:47:51.475Z,89.81
2018-12-24T21:50:20.036Z,90.02
2018-12-24T21:52:48.602Z,90.06
2018-12-24T21:55:17.158Z,90.00
2018-12-24T21:57:45.741Z,89.76
2018-12-24T22:00:14.348Z,89.85
2018-12-24T22:02:42.912Z,89.92
2018-12-24T22:05:11.671Z,89.79
2018-12-24T22:07:40.337Z,89.74
2018-12-24T22:10:08.987Z,89.70
2018-12-24T22:12:37.577Z,89.92
2018-12-24T22:15:06.308Z,90.04
2018-12-24T22:17:35.461Z,89.92
2018-12-24T22:20:04.109Z,89.71
2018-12-24T22:22:32.952Z,89.66
2018-12-24T22:25:01.628Z,89.49
2018-12-24T22:27:30.435Z,89.40
2018-12-24T22:29:59.120Z,89.48
2018-12-24T22:32:27.885Z,89.40
2018-12-24T22:34:56.801Z,89.52
2018-12-24T22:37:25.447Z,89.67
2018-12-24T22:39:54.179Z,89.38
2018-12-24T22:42:22.772Z,89.24
2018-12-24T22:44:51.572Z,89.24
2018-12-24T22:47:20.205Z,89.18
2018-12-24T22:49:48.908Z,89.23
2018-12-24T22:52:17.573Z,88.90
2018-12-24T22:54:46.257Z,88.95
2018-12-24T22:57:14.873Z,89.01
2018-12-24T22:59:43.636Z,89.16
2018-12-24T23:02:12.188Z,88.90
2018-12-24T23:04:40.782Z,89.16
2018-12-24T23:07:09.384Z,89.37
2018-12-24T23:09:37.995Z,89.26
2018-12-24T23:12:06.754Z,89.41
2018-12-24T23:14:35.214Z,89.57
2018-12-24T23:17:03.857Z,89.50
2018-12-24T23:19:32.695Z,88.99
2018-12-24T23:22:01.266Z,89.22
2018-12-24T23:24:29.930Z,89.21
2018-12-24T23:26:58.650Z,89.39
2018-12-24T23:29:27.331Z,89.42
2018-12-24T23:31:56.095Z,89.50
2018-12-24T23:34:24.652Z,89.40
2018-12-24T23:36:53.379Z,89.48
2018-12-24T23:39:22.131Z,89.42
2018-12-24T23:41:50.834Z,89.45
2018-12-24T23:44:19.531Z,89.64
2018-12-24T23:46:48.215Z,89.12
2018-12-24T23:49:16.872Z,89.35
2018-12-24T23:51:45.670Z,89.40
2018-12-24T23:54:14.479Z,89.18
2018-12-24T23:56:43.111Z,89.12
2018-12-24T23:59:11.719Z,89.43
